sensor_id;sensor_type;location;lat;lon;timestamp;P1;durP1;ratioP1;P2;durP2;ratioP2
16906;SDS011;8570;52.380;4.654;2023-03-01T00:00:08;17.37;;;10.47;;
16906;SDS011;8570;52.380;4.654;2023-03-01T00:05:12;15.37;;;9.90;;
16906;SDS011;8570;52.380;4.654;2023-03-01T00:10:14;14.13;;;10.00;;
16906;SDS011;8570;52.380;4.654;2023-03-01T00:15:16;12.90;;;9.50;;
16906;SDS011;8570;52.380;4.654;2023-03-01T00:20:20;14.50;;;10.37;;
16906;SDS011;8570;52.380;4.654;2023-03-01T00:25:21;17.20;;;10.77;;
16906;SDS011;8570;52.380;4.654;2023-03-01T00:30:23;17.47;;;11.43;;
16906;SDS011;8570;52.380;4.654;2023-03-01T00:35:26;17.53;;;10.20;;
16906;SDS011;8570;52.380;4.654;2023-03-01T00:40:29;19.27;;;10.27;;
16906;SDS011;8570;52.380;4.654;2023-03-01T00:45:33;17.03;;;10.57;;
16906;SDS011;8570;52.380;4.654;2023-03-01T00:50:36;15.23;;;10.13;;
16906;SDS011;8570;52.380;4.654;2023-03-01T00:55:38;14.87;;;9.90;;
16906;SDS011;8570;52.380;4.654;2023-03-01T01:00:40;15.67;;;10.37;;
16906;SDS011;8570;52.380;4.654;2023-03-01T01:05:43;14.37;;;10.13;;
16906;SDS011;8570;52.380;4.654;2023-03-01T01:10:45;15.20;;;10.53;;
16906;SDS011;8570;52.380;4.654;2023-03-01T01:15:48;14.80;;;11.00;;
16906;SDS011;8570;52.380;4.654;2023-03-01T01:20:51;16.07;;;10.93;;
16906;SDS011;8570;52.380;4.654;2023-03-01T01:25:53;17.03;;;10.83;;
16906;SDS011;8570;52.380;4.654;2023-03-01T01:30:55;15.03;;;11.00;;
16906;SDS011;8570;52.380;4.654;2023-03-01T01:35:58;15.97;;;11.20;;
16906;SDS011;8570;52.380;4.654;2023-03-01T01:41:00;16.67;;;11.13;;
16906;SDS011;8570;52.380;4.654;2023-03-01T01:46:03;15.93;;;10.90;;
16906;SDS011;8570;52.380;4.654;2023-03-01T01:51:09;14.50;;;11.27;;
16906;SDS011;8570;52.380;4.654;2023-03-01T01:56:13;15.93;;;11.50;;
16906;SDS011;8570;52.380;4.654;2023-03-01T02:01:17;15.77;;;11.43;;
16906;SDS011;8570;52.380;4.654;2023-03-01T02:06:21;16.63;;;11.73;;
16906;SDS011;8570;52.380;4.654;2023-03-01T02:11:29;20.47;;;12.17;;
16906;SDS011;8570;52.380;4.654;2023-03-01T02:16:32;17.60;;;12.33;;
16906;SDS011;8570;52.380;4.654;2023-03-01T02:21:38;17.50;;;12.03;;
16906;SDS011;8570;52.380;4.654;2023-03-01T02:26:51;17.90;;;11.73;;
16906;SDS011;8570;52.380;4.654;2023-03-01T02:31:58;16.90;;;11.83;;
16906;SDS011;8570;52.380;4.654;2023-03-01T02:37:05;16.63;;;11.83;;
16906;SDS011;8570;52.380;4.654;2023-03-01T02:42:12;17.23;;;12.87;;
16906;SDS011;8570;52.380;4.654;2023-03-01T02:47:21;18.67;;;13.23;;
16906;SDS011;8570;52.380;4.654;2023-03-01T02:52:34;17.33;;;12.83;;
16906;SDS011;8570;52.380;4.654;2023-03-01T02:57:45;21.40;;;13.70;;
16906;SDS011;8570;52.380;4.654;2023-03-01T03:02:52;20.43;;;14.13;;
16906;SDS011;8570;52.380;4.654;2023-03-01T03:07:57;15.13;;;12.23;;
16906;SDS011;8570;52.380;4.654;2023-03-01T03:13:01;18.13;;;13.57;;
16906;SDS011;8570;52.380;4.654;2023-03-01T03:18:07;16.03;;;12.07;;
16906;SDS011;8570;52.380;4.654;2023-03-01T03:23:10;17.10;;;12.53;;
16906;SDS011;8570;52.380;4.654;2023-03-01T03:28:13;18.17;;;12.47;;
16906;SDS011;8570;52.380;4.654;2023-03-01T03:33:18;17.80;;;12.63;;
16906;SDS011;8570;52.380;4.654;2023-03-01T03:38:20;18.23;;;13.37;;
16906;SDS011;8570;52.380;4.654;2023-03-01T03:43:22;18.40;;;13.10;;
16906;SDS011;8570;52.380;4.654;2023-03-01T03:48:26;19.27;;;13.87;;
16906;SDS011;8570;52.380;4.654;2023-03-01T03:53:28;18.13;;;13.07;;
16906;SDS011;8570;52.380;4.654;2023-03-01T03:58:30;17.97;;;13.23;;
16906;SDS011;8570;52.380;4.654;2023-03-01T04:03:34;19.43;;;12.77;;
16906;SDS011;8570;52.380;4.654;2023-03-01T04:08:36;18.30;;;13.40;;
16906;SDS011;8570;52.380;4.654;2023-03-01T04:13:37;17.37;;;12.83;;
16906;SDS011;8570;52.380;4.654;2023-03-01T04:18:41;18.00;;;14.00;;
16906;SDS011;8570;52.380;4.654;2023-03-01T04:23:43;19.73;;;13.60;;
16906;SDS011;8570;52.380;4.654;2023-03-01T04:28:45;18.10;;;13.93;;
16906;SDS011;8570;52.380;4.654;2023-03-01T04:33:50;19.90;;;13.47;;
16906;SDS011;8570;52.380;4.654;2023-03-01T04:38:54;21.80;;;14.47;;
16906;SDS011;8570;52.380;4.654;2023-03-01T04:43:56;20.93;;;14.70;;
16906;SDS011;8570;52.380;4.654;2023-03-01T04:49:01;25.87;;;16.23;;
16906;SDS011;8570;52.380;4.654;2023-03-01T04:54:03;27.60;;;17.00;;
16906;SDS011;8570;52.380;4.654;2023-03-01T04:59:08;30.27;;;18.93;;
16906;SDS011;8570;52.380;4.654;2023-03-01T05:04:13;33.77;;;18.47;;
16906;SDS011;8570;52.380;4.654;2023-03-01T05:09:16;25.67;;;17.37;;
16906;SDS011;8570;52.380;4.654;2023-03-01T05:14:18;24.47;;;15.93;;
16906;SDS011;8570;52.380;4.654;2023-03-01T05:19:21;36.53;;;13.97;;
16906;SDS011;8570;52.380;4.654;2023-03-01T05:24:23;20.00;;;12.47;;
16906;SDS011;8570;52.380;4.654;2023-03-01T05:29:28;20.13;;;12.63;;
16906;SDS011;8570;52.380;4.654;2023-03-01T05:34:36;19.93;;;11.80;;
16906;SDS011;8570;52.380;4.654;2023-03-01T05:39:39;22.77;;;13.77;;
16906;SDS011;8570;52.380;4.654;2023-03-01T05:44:41;27.20;;;12.87;;
16906;SDS011;8570;52.380;4.654;2023-03-01T05:49:44;26.27;;;14.10;;
16906;SDS011;8570;52.380;4.654;2023-03-01T05:54:46;18.53;;;12.13;;
16906;SDS011;8570;52.380;4.654;2023-03-01T05:59:48;17.73;;;11.63;;
16906;SDS011;8570;52.380;4.654;2023-03-01T06:04:51;34.67;;;13.47;;
16906;SDS011;8570;52.380;4.654;2023-03-01T06:09:53;20.20;;;11.77;;
16906;SDS011;8570;52.380;4.654;2023-03-01T06:14:55;19.27;;;12.83;;
16906;SDS011;8570;52.380;4.654;2023-03-01T06:19:58;19.13;;;12.57;;
16906;SDS011;8570;52.380;4.654;2023-03-01T06:25:01;21.00;;;12.77;;
16906;SDS011;8570;52.380;4.654;2023-03-01T06:30:03;23.87;;;14.33;;
16906;SDS011;8570;52.380;4.654;2023-03-01T06:35:08;27.17;;;15.00;;
16906;SDS011;8570;52.380;4.654;2023-03-01T06:40:10;31.60;;;17.17;;
16906;SDS011;8570;52.380;4.654;2023-03-01T06:45:13;32.10;;;18.17;;
16906;SDS011;8570;52.380;4.654;2023-03-01T06:50:17;32.53;;;17.20;;
16906;SDS011;8570;52.380;4.654;2023-03-01T06:55:19;30.47;;;17.70;;
16906;SDS011;8570;52.380;4.654;2023-03-01T07:00:21;30.37;;;18.23;;
16906;SDS011;8570;52.380;4.654;2023-03-01T07:05:25;37.43;;;18.80;;
16906;SDS011;8570;52.380;4.654;2023-03-01T07:10:27;65.43;;;25.40;;
16906;SDS011;8570;52.380;4.654;2023-03-01T07:15:29;47.77;;;23.77;;
16906;SDS011;8570;52.380;4.654;2023-03-01T07:20:34;51.17;;;23.23;;
16906;SDS011;8570;52.380;4.654;2023-03-01T07:25:36;66.70;;;26.17;;
16906;SDS011;8570;52.380;4.654;2023-03-01T07:30:38;71.53;;;22.63;;
16906;SDS011;8570;52.380;4.654;2023-03-01T07:35:41;60.73;;;21.83;;
16906;SDS011;8570;52.380;4.654;2023-03-01T07:40:43;60.03;;;23.80;;
16906;SDS011;8570;52.380;4.654;2023-03-01T07:45:45;86.30;;;21.07;;
16906;SDS011;8570;52.380;4.654;2023-03-01T07:50:48;298.43;;;19.70;;
16906;SDS011;8570;52.380;4.654;2023-03-01T07:55:50;100.83;;;16.23;;
16906;SDS011;8570;52.380;4.654;2023-03-01T08:01:01;132.60;;;18.80;;
16906;SDS011;8570;52.380;4.654;2023-03-01T08:06:06;211.40;;;22.03;;
16906;SDS011;8570;52.380;4.654;2023-03-01T08:11:10;146.07;;;22.57;;
16906;SDS011;8570;52.380;4.654;2023-03-01T08:16:13;35.77;;;18.27;;
16906;SDS011;8570;52.380;4.654;2023-03-01T08:21:17;51.40;;;19.53;;
16906;SDS011;8570;52.380;4.654;2023-03-01T08:26:20;37.13;;;20.10;;
16906;SDS011;8570;52.380;4.654;2023-03-01T08:31:23;51.47;;;21.17;;
16906;SDS011;8570;52.380;4.654;2023-03-01T08:36:29;47.80;;;20.03;;
16906;SDS011;8570;52.380;4.654;2023-03-01T08:41:33;110.73;;;22.10;;
16906;SDS011;8570;52.380;4.654;2023-03-01T08:46:36;63.87;;;24.63;;
16906;SDS011;8570;52.380;4.654;2023-03-01T08:51:40;127.33;;;26.10;;
16906;SDS011;8570;52.380;4.654;2023-03-01T08:56:43;218.93;;;30.47;;
16906;SDS011;8570;52.380;4.654;2023-03-01T09:01:45;74.90;;;26.27;;
16906;SDS011;8570;52.380;4.654;2023-03-01T09:06:49;111.73;;;24.87;;
16906;SDS011;8570;52.380;4.654;2023-03-01T09:11:50;152.30;;;29.13;;
16906;SDS011;8570;52.380;4.654;2023-03-01T09:16:52;144.37;;;27.77;;
16906;SDS011;8570;52.380;4.654;2023-03-01T09:21:56;79.03;;;24.40;;
16906;SDS011;8570;52.380;4.654;2023-03-01T09:26:58;72.03;;;24.53;;
16906;SDS011;8570;52.380;4.654;2023-03-01T09:32:00;75.50;;;26.80;;
16906;SDS011;8570;52.380;4.654;2023-03-01T09:37:04;43.00;;;25.97;;
16906;SDS011;8570;52.380;4.654;2023-03-01T09:42:06;46.27;;;27.73;;
16906;SDS011;8570;52.380;4.654;2023-03-01T09:47:15;43.93;;;25.97;;
16906;SDS011;8570;52.380;4.654;2023-03-01T09:52:23;39.63;;;26.40;;
16906;SDS011;8570;52.380;4.654;2023-03-01T09:57:33;39.07;;;26.17;;
16906;SDS011;8570;52.380;4.654;2023-03-01T10:02:39;40.90;;;26.90;;
16906;SDS011;8570;52.380;4.654;2023-03-01T10:07:47;46.23;;;30.73;;
16906;SDS011;8570;52.380;4.654;2023-03-01T10:12:57;53.37;;;32.40;;
16906;SDS011;8570;52.380;4.654;2023-03-01T10:18:01;54.57;;;34.60;;
16906;SDS011;8570;52.380;4.654;2023-03-01T10:23:09;48.77;;;31.30;;
16906;SDS011;8570;52.380;4.654;2023-03-01T10:28:15;54.97;;;33.60;;
16906;SDS011;8570;52.380;4.654;2023-03-01T10:33:19;49.70;;;32.50;;
16906;SDS011;8570;52.380;4.654;2023-03-01T10:38:25;37.30;;;25.83;;
16906;SDS011;8570;52.380;4.654;2023-03-01T10:43:32;34.13;;;23.70;;
16906;SDS011;8570;52.380;4.654;2023-03-01T10:48:44;28.20;;;22.70;;
16906;SDS011;8570;52.380;4.654;2023-03-01T10:53:48;23.47;;;18.57;;
16906;SDS011;8570;52.380;4.654;2023-03-01T10:58:58;17.73;;;14.63;;
16906;SDS011;8570;52.380;4.654;2023-03-01T11:04:07;20.97;;;15.63;;
16906;SDS011;8570;52.380;4.654;2023-03-01T11:09:15;16.23;;;13.97;;
16906;SDS011;8570;52.380;4.654;2023-03-01T11:14:20;20.17;;;13.20;;
16906;SDS011;8570;52.380;4.654;2023-03-01T11:19:23;11.07;;;9.37;;
16906;SDS011;8570;52.380;4.654;2023-03-01T11:24:29;12.73;;;10.50;;
16906;SDS011;8570;52.380;4.654;2023-03-01T11:29:35;11.03;;;8.80;;
16906;SDS011;8570;52.380;4.654;2023-03-01T11:34:42;11.25;;;10.07;;
16906;SDS011;8570;52.380;4.654;2023-03-01T11:39:50;12.33;;;9.47;;
16906;SDS011;8570;52.380;4.654;2023-03-01T11:45:06;12.70;;;9.70;;
16906;SDS011;8570;52.380;4.654;2023-03-01T11:50:23;13.50;;;9.20;;
16906;SDS011;8570;52.380;4.654;2023-03-01T11:55:43;16.92;;;9.30;;
16906;SDS011;8570;52.380;4.654;2023-03-01T12:06:24;9.18;;;8.15;;
16906;SDS011;8570;52.380;4.654;2023-03-01T12:11:43;12.75;;;9.27;;
16906;SDS011;8570;52.380;4.654;2023-03-01T12:22:44;12.80;;;10.60;;
16906;SDS011;8570;52.380;4.654;2023-03-01T12:33:41;9.85;;;8.32;;
16906;SDS011;8570;52.380;4.654;2023-03-01T12:38:55;10.13;;;9.02;;
16906;SDS011;8570;52.380;4.654;2023-03-01T12:44:08;15.25;;;9.73;;
16906;SDS011;8570;52.380;4.654;2023-03-01T12:49:23;10.48;;;9.13;;
16906;SDS011;8570;52.380;4.654;2023-03-01T12:54:28;10.80;;;9.45;;
16906;SDS011;8570;52.380;4.654;2023-03-01T12:59:33;17.92;;;9.57;;
16906;SDS011;8570;52.380;4.654;2023-03-01T13:04:50;11.60;;;9.43;;
16906;SDS011;8570;52.380;4.654;2023-03-01T13:10:02;11.43;;;8.82;;
16906;SDS011;8570;52.380;4.654;2023-03-01T13:15:29;9.88;;;8.63;;
16906;SDS011;8570;52.380;4.654;2023-03-01T13:20:44;15.68;;;9.05;;
16906;SDS011;8570;52.380;4.654;2023-03-01T13:25:59;10.65;;;8.82;;
16906;SDS011;8570;52.380;4.654;2023-03-01T13:37:17;12.50;;;9.20;;
16906;SDS011;8570;52.380;4.654;2023-03-01T13:42:41;10.48;;;8.45;;
16906;SDS011;8570;52.380;4.654;2023-03-01T13:47:46;10.23;;;8.40;;
16906;SDS011;8570;52.380;4.654;2023-03-01T13:52:52;12.95;;;8.52;;
16906;SDS011;8570;52.380;4.654;2023-03-01T13:57:59;13.57;;;9.23;;
16906;SDS011;8570;52.380;4.654;2023-03-01T14:03:08;11.85;;;8.98;;
16906;SDS011;8570;52.380;4.654;2023-03-01T14:08:21;14.27;;;9.38;;
16906;SDS011;8570;52.380;4.654;2023-03-01T14:13:28;14.25;;;9.68;;
16906;SDS011;8570;52.380;4.654;2023-03-01T14:18:43;11.55;;;9.90;;
16906;SDS011;8570;52.380;4.654;2023-03-01T14:23:55;11.68;;;8.80;;
16906;SDS011;8570;52.380;4.654;2023-03-01T14:28:57;13.20;;;9.45;;
16906;SDS011;8570;52.380;4.654;2023-03-01T14:33:59;14.18;;;9.70;;
16906;SDS011;8570;52.380;4.654;2023-03-01T14:39:15;13.77;;;10.80;;
16906;SDS011;8570;52.380;4.654;2023-03-01T14:44:19;13.98;;;10.75;;
16906;SDS011;8570;52.380;4.654;2023-03-01T14:49:25;15.43;;;10.07;;
16906;SDS011;8570;52.380;4.654;2023-03-01T14:54:39;14.33;;;10.23;;
16906;SDS011;8570;52.380;4.654;2023-03-01T14:59:42;13.27;;;9.93;;
16906;SDS011;8570;52.380;4.654;2023-03-01T15:04:45;10.77;;;8.07;;
16906;SDS011;8570;52.380;4.654;2023-03-01T15:09:50;16.17;;;8.30;;
16906;SDS011;8570;52.380;4.654;2023-03-01T15:14:53;12.00;;;8.13;;
16906;SDS011;8570;52.380;4.654;2023-03-01T15:19:55;12.73;;;8.07;;
16906;SDS011;8570;52.380;4.654;2023-03-01T15:24:59;12.37;;;8.70;;
16906;SDS011;8570;52.380;4.654;2023-03-01T15:30:01;10.07;;;7.07;;
16906;SDS011;8570;52.380;4.654;2023-03-01T15:40:36;8.83;;;6.87;;
16906;SDS011;8570;52.380;4.654;2023-03-01T15:45:55;10.50;;;7.70;;
16906;SDS011;8570;52.380;4.654;2023-03-01T15:50:58;9.80;;;7.03;;
16906;SDS011;8570;52.380;4.654;2023-03-01T15:56:02;9.20;;;6.63;;
16906;SDS011;8570;52.380;4.654;2023-03-01T16:01:08;8.63;;;6.23;;
16906;SDS011;8570;52.380;4.654;2023-03-01T16:06:14;9.60;;;6.20;;
16906;SDS011;8570;52.380;4.654;2023-03-01T16:11:17;8.00;;;5.83;;
16906;SDS011;8570;52.380;4.654;2023-03-01T16:16:20;8.33;;;5.80;;
16906;SDS011;8570;52.380;4.654;2023-03-01T16:21:23;9.50;;;6.23;;
16906;SDS011;8570;52.380;4.654;2023-03-01T16:26:27;8.87;;;6.60;;
16906;SDS011;8570;52.380;4.654;2023-03-01T16:31:29;10.97;;;7.80;;
16906;SDS011;8570;52.380;4.654;2023-03-01T16:36:31;8.90;;;6.87;;
16906;SDS011;8570;52.380;4.654;2023-03-01T16:41:34;10.17;;;7.17;;
16906;SDS011;8570;52.380;4.654;2023-03-01T16:46:36;11.17;;;7.30;;
16906;SDS011;8570;52.380;4.654;2023-03-01T16:51:38;10.63;;;7.50;;
16906;SDS011;8570;52.380;4.654;2023-03-01T16:56:41;11.10;;;8.03;;
16906;SDS011;8570;52.380;4.654;2023-03-01T17:01:43;12.03;;;8.37;;
16906;SDS011;8570;52.380;4.654;2023-03-01T17:06:45;11.43;;;8.23;;
16906;SDS011;8570;52.380;4.654;2023-03-01T17:11:49;11.50;;;8.63;;
16906;SDS011;8570;52.380;4.654;2023-03-01T17:16:51;12.13;;;8.77;;
16906;SDS011;8570;52.380;4.654;2023-03-01T17:21:54;17.10;;;10.23;;
16906;SDS011;8570;52.380;4.654;2023-03-01T17:26:57;20.10;;;11.30;;
16906;SDS011;8570;52.380;4.654;2023-03-01T17:31:59;14.27;;;10.93;;
16906;SDS011;8570;52.380;4.654;2023-03-01T17:37:01;14.23;;;10.37;;
16906;SDS011;8570;52.380;4.654;2023-03-01T17:42:04;17.93;;;11.40;;
16906;SDS011;8570;52.380;4.654;2023-03-01T17:47:06;13.50;;;10.57;;
16906;SDS011;8570;52.380;4.654;2023-03-01T17:52:08;15.67;;;10.90;;
16906;SDS011;8570;52.380;4.654;2023-03-01T17:57:11;17.33;;;10.87;;
16906;SDS011;8570;52.380;4.654;2023-03-01T18:02:13;14.63;;;10.57;;
16906;SDS011;8570;52.380;4.654;2023-03-01T18:07:15;15.80;;;11.37;;
16906;SDS011;8570;52.380;4.654;2023-03-01T18:12:19;18.67;;;12.53;;
16906;SDS011;8570;52.380;4.654;2023-03-01T18:17:21;22.50;;;13.63;;
16906;SDS011;8570;52.380;4.654;2023-03-01T18:22:24;20.37;;;12.37;;
16906;SDS011;8570;52.380;4.654;2023-03-01T18:27:28;18.57;;;12.07;;
16906;SDS011;8570;52.380;4.654;2023-03-01T18:32:30;19.40;;;12.23;;
16906;SDS011;8570;52.380;4.654;2023-03-01T18:37:31;19.13;;;11.53;;
16906;SDS011;8570;52.380;4.654;2023-03-01T18:42:35;15.23;;;10.07;;
16906;SDS011;8570;52.380;4.654;2023-03-01T18:47:36;18.17;;;10.80;;
16906;SDS011;8570;52.380;4.654;2023-03-01T18:52:38;22.80;;;13.00;;
16906;SDS011;8570;52.380;4.654;2023-03-01T18:57:42;18.47;;;12.47;;
16906;SDS011;8570;52.380;4.654;2023-03-01T19:02:43;16.73;;;11.33;;
16906;SDS011;8570;52.380;4.654;2023-03-01T19:07:46;17.70;;;11.17;;
16906;SDS011;8570;52.380;4.654;2023-03-01T19:12:49;15.93;;;10.70;;
16906;SDS011;8570;52.380;4.654;2023-03-01T19:17:51;15.13;;;10.47;;
16906;SDS011;8570;52.380;4.654;2023-03-01T19:22:53;16.93;;;11.53;;
16906;SDS011;8570;52.380;4.654;2023-03-01T19:27:56;24.43;;;13.20;;
16906;SDS011;8570;52.380;4.654;2023-03-01T19:32:58;24.67;;;15.00;;
16906;SDS011;8570;52.380;4.654;2023-03-01T19:38:00;21.33;;;13.17;;
16906;SDS011;8570;52.380;4.654;2023-03-01T19:43:03;15.77;;;11.47;;
16906;SDS011;8570;52.380;4.654;2023-03-01T19:48:05;21.00;;;11.47;;
16906;SDS011;8570;52.380;4.654;2023-03-01T19:53:07;18.27;;;12.67;;
16906;SDS011;8570;52.380;4.654;2023-03-01T19:58:10;16.53;;;11.93;;
16906;SDS011;8570;52.380;4.654;2023-03-01T20:03:12;21.67;;;13.30;;
16906;SDS011;8570;52.380;4.654;2023-03-01T20:08:14;18.70;;;12.93;;
16906;SDS011;8570;52.380;4.654;2023-03-01T20:13:17;16.80;;;12.13;;
16906;SDS011;8570;52.380;4.654;2023-03-01T20:18:20;19.40;;;12.60;;
16906;SDS011;8570;52.380;4.654;2023-03-01T20:23:22;24.87;;;14.57;;
16906;SDS011;8570;52.380;4.654;2023-03-01T20:28:25;20.33;;;13.03;;
16906;SDS011;8570;52.380;4.654;2023-03-01T20:33:27;20.20;;;12.63;;
16906;SDS011;8570;52.380;4.654;2023-03-01T20:38:29;19.53;;;13.03;;
16906;SDS011;8570;52.380;4.654;2023-03-01T20:43:32;23.17;;;12.87;;
16906;SDS011;8570;52.380;4.654;2023-03-01T20:48:35;24.90;;;14.40;;
16906;SDS011;8570;52.380;4.654;2023-03-01T20:53:37;29.30;;;15.30;;
16906;SDS011;8570;52.380;4.654;2023-03-01T20:58:40;34.57;;;18.47;;
16906;SDS011;8570;52.380;4.654;2023-03-01T21:03:43;31.37;;;17.50;;
16906;SDS011;8570;52.380;4.654;2023-03-01T21:08:45;26.70;;;16.67;;
16906;SDS011;8570;52.380;4.654;2023-03-01T21:13:48;24.40;;;16.00;;
16906;SDS011;8570;52.380;4.654;2023-03-01T21:18:50;23.60;;;14.37;;
16906;SDS011;8570;52.380;4.654;2023-03-01T21:23:52;23.10;;;15.10;;
16906;SDS011;8570;52.380;4.654;2023-03-01T21:28:56;20.27;;;14.50;;
16906;SDS011;8570;52.380;4.654;2023-03-01T21:34:01;20.60;;;15.37;;
16906;SDS011;8570;52.380;4.654;2023-03-01T21:39:04;24.73;;;16.63;;
16906;SDS011;8570;52.380;4.654;2023-03-01T21:44:08;24.67;;;16.30;;
16906;SDS011;8570;52.380;4.654;2023-03-01T21:49:10;22.57;;;15.73;;
16906;SDS011;8570;52.380;4.654;2023-03-01T21:54:12;22.73;;;16.20;;
16906;SDS011;8570;52.380;4.654;2023-03-01T21:59:18;24.80;;;16.17;;
16906;SDS011;8570;52.380;4.654;2023-03-01T22:04:21;26.33;;;17.47;;
16906;SDS011;8570;52.380;4.654;2023-03-01T22:09:24;28.67;;;18.73;;
16906;SDS011;8570;52.380;4.654;2023-03-01T22:14:27;28.90;;;19.43;;
16906;SDS011;8570;52.380;4.654;2023-03-01T22:19:31;26.60;;;18.70;;
16906;SDS011;8570;52.380;4.654;2023-03-01T22:24:32;31.57;;;19.97;;
16906;SDS011;8570;52.380;4.654;2023-03-01T22:29:36;28.70;;;19.27;;
16906;SDS011;8570;52.380;4.654;2023-03-01T22:34:38;28.33;;;20.23;;
16906;SDS011;8570;52.380;4.654;2023-03-01T22:39:39;27.93;;;18.73;;
16906;SDS011;8570;52.380;4.654;2023-03-01T22:44:43;27.10;;;18.50;;
16906;SDS011;8570;52.380;4.654;2023-03-01T22:49:44;27.20;;;19.57;;
16906;SDS011;8570;52.380;4.654;2023-03-01T22:54:46;27.63;;;19.73;;
16906;SDS011;8570;52.380;4.654;2023-03-01T22:59:50;32.70;;;21.37;;
16906;SDS011;8570;52.380;4.654;2023-03-01T23:04:52;28.00;;;19.80;;
16906;SDS011;8570;52.380;4.654;2023-03-01T23:09:54;30.63;;;20.17;;
16906;SDS011;8570;52.380;4.654;2023-03-01T23:15:02;28.63;;;21.00;;
16906;SDS011;8570;52.380;4.654;2023-03-01T23:20:05;31.87;;;22.17;;
16906;SDS011;8570;52.380;4.654;2023-03-01T23:25:10;35.90;;;23.33;;
16906;SDS011;8570;52.380;4.654;2023-03-01T23:30:13;35.07;;;23.60;;
16906;SDS011;8570;52.380;4.654;2023-03-01T23:35:15;32.57;;;23.47;;
16906;SDS011;8570;52.380;4.654;2023-03-01T23:40:17;33.60;;;21.33;;
16906;SDS011;8570;52.380;4.654;2023-03-01T23:45:21;30.27;;;21.17;;
16906;SDS011;8570;52.380;4.654;2023-03-01T23:50:23;29.63;;;20.93;;
16906;SDS011;8570;52.380;4.654;2023-03-01T23:55:25;28.87;;;21.50;;
